Time;durP1;ratioP1;P1;durP2;ratioP2;P2;SDS_P1;SDS_P2;PMS_P1;PMS_P2;Temp;Humidity;BMP_temperature;BMP_pressure;BME280_temperature;BME280_humidity;BME280_pressure;Samples;Min_cycle;Max_cycle;Signal;HPM_P1;HPM_P2
2023/09/21 00:00:16;;;;;;;3.25;1.38;;;16.90;86.00;;;;;;4986189;28;20482;-73
2023/09/21 00:02:49;;;;;;;2.65;1.35;;;16.90;85.80;;;;;;4990129;28;20042;-72
2023/09/21 00:05:17;;;;;;;3.92;1.23;;;16.90;85.90;;;;;;4986092;28;20034;-73
2023/09/21 00:07:43;;;;;;;2.15;1.25;;;16.90;85.90;;;;;;4986874;28;20034;-72
2023/09/21 00:10:09;;;;;;;3.75;1.27;;;16.80;86.10;;;;;;4996804;28;20030;-73
2023/09/21 00:12:35;;;;;;;4.32;1.35;;;16.90;85.90;;;;;;4973330;28;20489;-72
2023/09/21 00:15:04;;;;;;;3.25;1.63;;;16.80;85.90;;;;;;4991673;28;20518;-73
2023/09/21 00:17:32;;;;;;;3.22;1.17;;;16.80;85.90;;;;;;4988853;28;20537;-73
2023/09/21 00:19:59;;;;;;;2.63;1.20;;;16.80;85.90;;;;;;4984788;28;20038;-72
2023/09/21 00:22:25;;;;;;;4.07;1.58;;;16.80;85.70;;;;;;4991805;28;20026;-72
2023/09/21 00:24:52;;;;;;;2.28;1.20;;;16.80;85.70;;;;;;4999334;28;20529;-73
2023/09/21 00:27:17;;;;;;;3.03;1.08;;;16.70;85.90;;;;;;4975918;28;20034;-73
2023/09/21 00:29:43;;;;;;;2.63;1.35;;;16.80;85.50;;;;;;4988759;28;20027;-73
2023/09/21 00:32:08;;;;;;;2.58;1.00;;;16.80;85.60;;;;;;4990099;28;20022;-73
2023/09/21 00:34:34;;;;;;;2.67;1.50;;;16.80;85.80;;;;;;4990665;28;20039;-72
2023/09/21 00:37:00;;;;;;;3.05;1.20;;;16.70;85.70;;;;;;4988168;28;20433;-72
2023/09/21 00:39:25;;;;;;;1.90;1.27;;;16.60;85.90;;;;;;4994491;28;20382;-72
2023/09/21 00:41:51;;;;;;;2.70;1.38;;;16.60;86.10;;;;;;4992009;28;20038;-73
2023/09/21 00:44:17;;;;;;;4.68;1.20;;;16.70;85.90;;;;;;4989470;28;20038;-73
2023/09/21 00:46:44;;;;;;;1.88;1.00;;;16.60;86.00;;;;;;4986205;28;20141;-72
2023/09/21 00:49:10;;;;;;;3.70;1.20;;;16.50;86.10;;;;;;4973681;28;20042;-72
2023/09/21 00:51:37;;;;;;;3.63;1.30;;;16.60;86.20;;;;;;4989817;28;20037;-72
2023/09/21 00:54:09;;;;;;;2.30;1.00;;;16.50;86.10;;;;;;4994040;28;20061;-72
2023/09/21 00:56:37;;;;;;;;;;;16.40;86.60;;;;;;4990563;28;20104;-73
2023/09/21 00:59:02;;;;;;;2.60;1.27;;;16.30;86.90;;;;;;4993353;28;20327;-73
2023/09/21 01:01:28;;;;;;;4.75;1.33;;;16.30;86.90;;;;;;4975286;28;20030;-73
2023/09/21 01:03:55;;;;;;;3.75;1.50;;;16.30;86.80;;;;;;4991903;28;20041;-73
2023/09/21 01:06:21;;;;;;;3.45;1.63;;;16.30;86.90;;;;;;4988415;28;20026;-72
2023/09/21 01:08:48;;;;;;;3.42;1.50;;;16.20;86.90;;;;;;4992727;28;20030;-72
2023/09/21 01:11:14;;;;;;;2.67;1.33;;;16.20;87.10;;;;;;4991879;28;20037;-72
2023/09/21 01:13:41;;;;;;;4.57;1.40;;;16.20;87.10;;;;;;4987185;28;20034;-73
2023/09/21 01:16:15;;;;;;;4.43;1.15;;;16.20;87.10;;;;;;4976051;28;20476;-72
2023/09/21 01:18:41;;;;;;;2.63;1.23;;;16.10;87.20;;;;;;4983289;28;20074;-73
2023/09/21 01:21:09;;;;;;;3.05;1.20;;;16.00;87.40;;;;;;4987123;28;20534;-72
2023/09/21 01:23:45;;;;;;;3.15;1.20;;;16.00;87.80;;;;;;4990450;28;20468;-73
2023/09/21 01:26:12;;;;;;;2.30;1.08;;;15.90;87.90;;;;;;4990059;28;20030;-72
2023/09/21 01:28:38;;;;;;;3.67;1.40;;;15.80;88.30;;;;;;4989906;28;20081;-73
2023/09/21 01:31:05;;;;;;;5.55;1.45;;;15.80;88.10;;;;;;4996498;28;20026;-72
2023/09/21 01:33:31;;;;;;;5.05;1.77;;;15.90;88.10;;;;;;4972440;28;20042;-73
2023/09/21 01:35:56;;;;;;;3.35;1.20;;;15.90;88.20;;;;;;4989945;28;20034;-73
2023/09/21 01:38:25;;;;;;;2.33;1.23;;;15.90;87.90;;;;;;4987926;28;20038;-72
2023/09/21 01:40:51;;;;;;;2.70;1.38;;;15.90;87.90;;;;;;4990401;28;20042;-73
2023/09/21 01:43:17;;;;;;;4.43;1.30;;;16.00;87.50;;;;;;4988189;28;20030;-72
2023/09/21 01:45:48;;;;;;;4.28;1.58;;;15.90;87.90;;;;;;4990635;28;20054;-72
2023/09/21 01:48:14;;;;;;;;;;;15.90;87.60;;;;;;4992723;28;20033;-72
2023/09/21 01:50:48;;;;;;;2.17;1.15;;;15.80;87.90;;;;;;4990503;28;19953;-72
2023/09/21 01:53:18;;;;;;;3.83;1.30;;;15.80;88.00;;;;;;4991639;28;20042;-73
2023/09/21 01:55:47;;;;;;;3.47;1.25;;;15.70;88.10;;;;;;4988178;28;20053;-72
2023/09/21 01:58:13;;;;;;;2.10;1.13;;;15.60;88.40;;;;;;4991514;28;20022;-72
2023/09/21 02:00:40;;;;;;;6.32;1.60;;;15.50;88.40;;;;;;4987940;28;20460;-73
2023/09/21 02:03:09;;;;;;;3.08;1.30;;;15.60;88.60;;;;;;4989961;28;20026;-73
2023/09/21 02:05:35;;;;;;;3.67;1.33;;;15.60;88.60;;;;;;4988781;28;20039;-73
2023/09/21 02:08:01;;;;;;;5.53;1.38;;;15.60;88.40;;;;;;4990221;28;20031;-72
2023/09/21 02:10:27;;;;;;;2.90;1.40;;;15.60;88.30;;;;;;4990877;28;20031;-73
2023/09/21 02:12:57;;;;;;;3.08;1.30;;;15.70;88.00;;;;;;4975546;28;20046;-72
2023/09/21 02:15:24;;;;;;;2.70;1.27;;;15.60;88.00;;;;;;4988110;28;21547;-73
2023/09/21 02:17:52;;;;;;;3.20;1.48;;;15.60;88.10;;;;;;4977948;28;20120;-74
2023/09/21 02:20:20;;;;;;;3.97;1.35;;;15.60;88.00;;;;;;4971441;28;20026;-73
2023/09/21 02:22:47;;;;;;;5.93;1.45;;;15.50;88.30;;;;;;4987835;28;20561;-72
2023/09/21 02:25:13;;;;;;;3.72;1.65;;;15.60;88.10;;;;;;4975875;28;20101;-72
2023/09/21 02:27:48;;;;;;;4.72;1.52;;;15.60;88.10;;;;;;5000053;28;20038;-73
2023/09/21 02:30:17;;;;;;;2.50;1.30;;;15.70;87.90;;;;;;4974656;28;20361;-72
2023/09/21 02:32:49;;;;;;;2.78;1.23;;;15.50;88.10;;;;;;4983856;28;20041;-73
2023/09/21 02:35:26;;;;;;;2.80;1.15;;;15.50;88.10;;;;;;4985454;28;20041;-72
2023/09/21 02:37:54;;;;;;;3.00;1.48;;;15.50;88.00;;;;;;4972928;28;20113;-74
2023/09/21 02:40:21;;;;;;;2.63;1.25;;;15.50;88.30;;;;;;4990077;28;20072;-73
2023/09/21 02:42:53;;;;;;;2.30;1.30;;;15.50;88.30;;;;;;4984759;28;20026;-72
2023/09/21 02:45:24;;;;;;;2.80;1.40;;;15.60;87.90;;;;;;4986176;28;20121;-73
2023/09/21 02:47:52;;;;;;;3.08;1.50;;;15.60;87.70;;;;;;4982173;28;20029;-72
2023/09/21 02:50:27;;;;;;;4.07;1.15;;;15.60;87.50;;;;;;4986925;28;20402;-73
2023/09/21 02:52:56;;;;;;;2.35;1.30;;;15.60;87.60;;;;;;4988965;28;20041;-72
2023/09/21 02:55:24;;;;;;;4.57;1.17;;;15.50;87.90;;;;;;4985888;28;20030;-73
2023/09/21 02:57:55;;;;;;;3.67;1.33;;;15.60;87.60;;;;;;4988452;28;20120;-72
2023/09/21 03:00:35;;;;;;;3.50;1.60;;;15.60;87.70;;;;;;4990874;28;20080;-73
2023/09/21 03:03:04;;;;;;;2.63;1.27;;;15.50;87.70;;;;;;4983821;28;20097;-73
2023/09/21 03:05:30;;;;;;;3.90;1.40;;;15.50;87.90;;;;;;4965387;28;20065;-72
2023/09/21 03:07:56;;;;;;;2.33;1.50;;;15.50;87.60;;;;;;4984800;28;20106;-73
2023/09/21 03:10:23;;;;;;;2.75;1.40;;;15.50;87.80;;;;;;4991709;28;20033;-73
2023/09/21 03:12:48;;;;;;;5.15;1.33;;;15.50;88.00;;;;;;4993669;28;20058;-73
2023/09/21 03:15:15;;;;;;;5.22;1.95;;;15.40;88.10;;;;;;4989716;28;20065;-73
2023/09/21 03:17:42;;;;;;;2.65;1.50;;;15.30;88.20;;;;;;4984067;28;20105;-73
2023/09/21 03:20:11;;;;;;;3.08;1.55;;;15.40;88.00;;;;;;4984526;28;20031;-73
2023/09/21 03:22:37;;;;;;;2.97;1.23;;;15.40;88.20;;;;;;4983083;28;20034;-72
2023/09/21 03:25:03;;;;;;;2.63;1.20;;;15.40;88.30;;;;;;4992708;28;20053;-72
2023/09/21 03:27:29;;;;;;;4.32;1.60;;;15.40;88.00;;;;;;4990112;28;20112;-73
2023/09/21 03:29:55;;;;;;;2.85;1.33;;;15.40;88.10;;;;;;4987617;28;20035;-72
2023/09/21 03:32:20;;;;;;;1.95;1.00;;;15.40;88.00;;;;;;4987961;28;20512;-73
2023/09/21 03:34:46;;;;;;;3.83;1.25;;;15.40;88.00;;;;;;4988260;28;20034;-72
2023/09/21 03:37:13;;;;;;;2.92;1.30;;;15.40;88.10;;;;;;4981888;28;20031;-72
2023/09/21 03:39:39;;;;;;;3.10;1.38;;;15.50;87.70;;;;;;4982061;28;20117;-72
2023/09/21 03:42:05;;;;;;;2.53;1.40;;;15.50;87.90;;;;;;4992010;28;20165;-72
2023/09/21 03:44:30;;;;;;;4.90;1.70;;;15.60;87.20;;;;;;4985120;28;20121;-72
2023/09/21 03:46:56;;;;;;;2.65;1.50;;;15.70;87.00;;;;;;4984525;28;20041;-72
2023/09/21 03:49:21;;;;;;;4.47;1.67;;;15.80;86.90;;;;;;4984402;28;20483;-72
2023/09/21 03:51:47;;;;;;;3.13;1.40;;;15.80;86.90;;;;;;4988214;28;20046;-74
2023/09/21 03:54:15;;;;;;;2.75;1.50;;;15.80;86.70;;;;;;4985262;28;20057;-73
2023/09/21 03:56:41;;;;;;;2.53;1.23;;;15.80;86.60;;;;;;4991819;28;20034;-72
2023/09/21 03:59:07;;;;;;;3.25;1.27;;;15.80;86.60;;;;;;4994927;28;20105;-72
2023/09/21 04:01:34;;;;;;;2.42;0.98;;;15.90;86.50;;;;;;4987588;28;20035;-73
2023/09/21 04:04:05;;;;;;;2.47;1.42;;;16.00;86.20;;;;;;4988202;28;20072;-72
2023/09/21 04:06:31;;;;;;;3.92;1.58;;;16.00;85.80;;;;;;4990784;28;20034;-74
2023/09/21 04:08:57;;;;;;;2.65;1.40;;;16.10;85.60;;;;;;4991371;28;20034;-73
2023/09/21 04:11:22;;;;;;;2.97;1.30;;;16.20;85.20;;;;;;5002699;28;20079;-72
2023/09/21 04:13:48;;;;;;;3.20;1.73;;;16.10;85.60;;;;;;4996950;28;20078;-73
2023/09/21 04:16:13;;;;;;;2.55;1.40;;;16.10;85.60;;;;;;4990067;28;20038;-73
2023/09/21 04:18:40;;;;;;;3.90;1.40;;;16.00;85.60;;;;;;4990790;28;20030;-73
2023/09/21 04:21:08;;;;;;;3.45;1.30;;;16.00;85.60;;;;;;4989208;28;20035;-73
2023/09/21 04:23:34;;;;;;;4.95;1.63;;;15.90;86.00;;;;;;4988452;28;20045;-73
2023/09/21 04:26:00;;;;;;;3.42;1.38;;;15.90;85.90;;;;;;4987028;28;20047;-72
2023/09/21 04:28:25;;;;;;;2.95;1.60;;;15.80;86.10;;;;;;4986309;28;20053;-68
2023/09/21 04:30:51;;;;;;;3.28;1.38;;;15.80;86.30;;;;;;4984744;28;20439;-69
2023/09/21 04:33:16;;;;;;;3.65;1.40;;;15.80;86.30;;;;;;4971591;28;20731;-68
2023/09/21 04:35:42;;;;;;;6.45;1.73;;;15.80;86.20;;;;;;4970416;28;20061;-67
2023/09/21 04:38:08;;;;;;;2.75;1.23;;;15.80;86.40;;;;;;4975791;28;20031;-69
2023/09/21 04:40:34;;;;;;;2.83;1.45;;;15.70;86.60;;;;;;4988175;28;20031;-67
2023/09/21 04:42:59;;;;;;;3.30;1.50;;;15.70;86.70;;;;;;4974201;28;20029;-70
2023/09/21 04:45:26;;;;;;;5.93;1.40;;;15.70;86.50;;;;;;4984717;28;20074;-68
2023/09/21 04:47:58;;;;;;;3.78;1.58;;;15.60;86.80;;;;;;4981854;28;20034;-71
2023/09/21 04:50:24;;;;;;;4.10;1.45;;;15.60;86.70;;;;;;4984587;28;20022;-68
2023/09/21 04:52:50;;;;;;;2.97;1.33;;;15.80;86.30;;;;;;4982470;28;20033;-68
2023/09/21 04:55:16;;;;;;;3.92;1.52;;;15.70;86.30;;;;;;4980430;28;20038;-68
2023/09/21 04:57:42;;;;;;;4.70;1.48;;;15.70;86.20;;;;;;4986960;28;20046;-67
2023/09/21 05:00:10;;;;;;;3.92;1.42;;;15.80;85.90;;;;;;4981066;28;20459;-69
2023/09/21 05:02:36;;;;;;;3.88;1.50;;;15.70;86.00;;;;;;4988034;28;20141;-67
2023/09/21 05:05:02;;;;;;;3.78;1.75;;;15.70;86.20;;;;;;4984217;28;20030;-68
2023/09/21 05:07:28;;;;;;;4.72;1.40;;;15.70;86.00;;;;;;4974323;28;20036;-69
2023/09/21 05:09:53;;;;;;;3.28;1.55;;;15.70;86.10;;;;;;4984692;28;20037;-68
2023/09/21 05:12:19;;;;;;;2.72;1.40;;;15.70;86.10;;;;;;4986177;28;20030;-69
2023/09/21 05:14:45;;;;;;;3.58;1.60;;;15.60;86.10;;;;;;4974881;28;20467;-67
2023/09/21 05:17:11;;;;;;;4.00;1.48;;;15.90;85.40;;;;;;4988134;28;20031;-67
2023/09/21 05:19:37;;;;;;;3.60;1.42;;;15.80;85.40;;;;;;4964022;28;20037;-67
2023/09/21 05:22:04;;;;;;;3.50;1.70;;;15.80;85.50;;;;;;4988644;28;20034;-67
2023/09/21 05:24:30;;;;;;;3.20;1.63;;;15.90;85.10;;;;;;4988188;28;20777;-67
2023/09/21 05:26:55;;;;;;;4.13;1.70;;;15.90;85.30;;;;;;4987767;28;20052;-69
2023/09/21 05:29:21;;;;;;;3.55;1.65;;;15.90;85.10;;;;;;4969117;28;20034;-67
2023/09/21 05:31:48;;;;;;;2.28;1.30;;;15.90;85.10;;;;;;4983375;28;20053;-68
2023/09/21 05:34:14;;;;;;;2.95;1.27;;;15.90;84.90;;;;;;4982658;28;20057;-67
2023/09/21 05:36:39;;;;;;;4.40;1.40;;;15.90;84.90;;;;;;4980254;28;20467;-68
2023/09/21 05:39:05;;;;;;;4.72;1.80;;;16.00;84.80;;;;;;4990446;28;20069;-67
2023/09/21 05:41:31;;;;;;;2.20;1.40;;;16.00;84.70;;;;;;4989112;28;20030;-68
2023/09/21 05:43:57;;;;;;;5.57;1.55;;;15.90;84.80;;;;;;4991657;28;20379;-67
2023/09/21 05:46:23;;;;;;;4.55;1.42;;;16.00;84.30;;;;;;4979678;28;20043;-68
2023/09/21 05:48:48;;;;;;;5.35;1.52;;;16.10;83.70;;;;;;4985318;28;20033;-68
2023/09/21 05:51:14;;;;;;;2.47;1.27;;;16.10;84.00;;;;;;4980781;28;20034;-68
2023/09/21 05:53:39;;;;;;;3.35;1.58;;;16.10;84.00;;;;;;4989211;28;20026;-68
2023/09/21 05:56:05;;;;;;;5.00;1.45;;;16.10;83.90;;;;;;4986327;28;20042;-67
2023/09/21 05:58:30;;;;;;;2.78;1.60;;;16.20;83.70;;;;;;4988767;28;20026;-68
2023/09/21 06:00:59;;;;;;;6.13;2.00;;;16.20;83.60;;;;;;4987117;28;20222;-67
2023/09/21 06:03:27;;;;;;;2.92;1.42;;;16.20;83.40;;;;;;4987186;28;20046;-67
2023/09/21 06:05:53;;;;;;;2.42;1.48;;;16.30;83.20;;;;;;4986282;28;20034;-68
2023/09/21 06:08:19;;;;;;;3.42;1.33;;;16.40;83.00;;;;;;4990330;28;20416;-67
2023/09/21 06:10:45;;;;;;;2.42;1.38;;;16.40;83.10;;;;;;4984415;28;20056;-68
2023/09/21 06:13:12;;;;;;;2.63;1.20;;;16.40;82.80;;;;;;4983305;28;20100;-67
2023/09/21 06:15:44;;;;;;;3.25;1.45;;;16.50;82.70;;;;;;4989102;28;20113;-68
2023/09/21 06:18:10;;;;;;;3.08;1.50;;;16.50;83.00;;;;;;4982457;28;20045;-67
2023/09/21 06:20:35;;;;;;;2.65;1.45;;;16.50;82.90;;;;;;4971468;28;20034;-68
2023/09/21 06:23:01;;;;;;;3.75;1.67;;;16.50;82.80;;;;;;4990043;28;20044;-67
2023/09/21 06:25:26;;;;;;;4.53;1.85;;;16.60;82.50;;;;;;4976035;28;20495;-68
2023/09/21 06:27:51;;;;;;;2.53;1.50;;;16.60;82.50;;;;;;4977846;28;20077;-68
2023/09/21 06:30:17;;;;;;;3.55;1.58;;;16.70;81.50;;;;;;4986679;28;20042;-68
2023/09/21 06:32:44;;;;;;;2.20;1.40;;;16.80;81.70;;;;;;4979492;28;20050;-67
2023/09/21 06:35:13;;;;;;;3.80;1.45;;;16.80;82.00;;;;;;4983154;28;20055;-67
2023/09/21 06:37:39;;;;;;;2.15;1.27;;;16.90;81.60;;;;;;4984690;28;20073;-68
2023/09/21 06:40:06;;;;;;;3.78;1.80;;;16.90;81.20;;;;;;4988259;28;20030;-68
2023/09/21 06:42:32;;;;;;;3.13;1.17;;;17.00;80.90;;;;;;4975486;28;20534;-67
2023/09/21 06:44:57;;;;;;;3.88;1.40;;;17.10;80.50;;;;;;4982351;28;20035;-68
2023/09/21 06:47:23;;;;;;;2.33;1.20;;;17.20;80.10;;;;;;4987315;28;20031;-69
2023/09/21 06:49:50;;;;;;;2.88;1.30;;;17.30;80.20;;;;;;4982266;28;20467;-67
2023/09/21 06:52:17;;;;;;;2.50;1.20;;;17.40;79.60;;;;;;4987536;28;20033;-69
2023/09/21 06:54:44;;;;;;;4.95;1.48;;;17.40;79.60;;;;;;4987402;28;20027;-68
2023/09/21 06:57:10;;;;;;;3.15;1.45;;;17.50;79.50;;;;;;4978444;28;20027;-71
2023/09/21 06:59:36;;;;;;;2.78;1.30;;;17.50;79.30;;;;;;4964641;28;20041;-71
2023/09/21 07:02:03;;;;;;;2.78;1.48;;;17.60;78.80;;;;;;4984157;28;20084;-68
2023/09/21 07:04:33;;;;;;;2.67;1.50;;;17.60;79.20;;;;;;4988562;28;20439;-68
2023/09/21 07:07:05;;;;;;;4.07;1.23;;;17.70;79.00;;;;;;5002665;28;20438;-68
2023/09/21 07:09:37;;;;;;;3.85;1.40;;;17.70;78.30;;;;;;5000810;28;20034;-68
2023/09/21 07:12:03;;;;;;;3.13;1.40;;;17.80;78.40;;;;;;4992947;28;20088;-68
2023/09/21 07:14:30;;;;;;;3.28;1.50;;;17.90;78.10;;;;;;5008830;28;20072;-68
2023/09/21 07:16:56;;;;;;;2.33;1.10;;;18.00;77.80;;;;;;4998542;28;20031;-68
2023/09/21 07:19:22;;;;;;;2.45;1.20;;;18.00;77.80;;;;;;4975495;28;20027;-68
2023/09/21 07:21:48;;;;;;;3.33;1.17;;;18.10;77.60;;;;;;4988756;28;20034;-68
2023/09/21 07:24:13;;;;;;;4.40;1.30;;;18.10;76.90;;;;;;4984035;28;20085;-67
2023/09/21 07:26:39;;;;;;;2.70;1.27;;;18.20;77.10;;;;;;4993321;28;20050;-68
2023/09/21 07:29:07;;;;;;;2.03;1.17;;;18.30;76.60;;;;;;4990882;28;20035;-69
2023/09/21 07:31:35;;;;;;;3.40;1.38;;;18.30;77.20;;;;;;4992896;28;20410;-67
2023/09/21 07:34:02;;;;;;;3.75;1.33;;;18.40;76.60;;;;;;4992300;28;20124;-68
2023/09/21 07:36:27;;;;;;;2.45;1.27;;;18.50;75.70;;;;;;4989604;28;20046;-69
2023/09/21 07:38:55;;;;;;;1.90;1.00;;;18.60;75.70;;;;;;4994429;28;20039;-68
2023/09/21 07:41:21;;;;;;;5.30;1.35;;;18.60;76.90;;;;;;4989191;28;20073;-67
2023/09/21 07:43:48;;;;;;;3.60;1.67;;;18.70;75.90;;;;;;4978435;28;20038;-68
2023/09/21 07:46:14;;;;;;;1.75;1.20;;;18.70;75.60;;;;;;4998708;28;20068;-67
2023/09/21 07:48:40;;;;;;;5.20;1.27;;;18.80;75.60;;;;;;4990490;28;20061;-67
2023/09/21 07:51:07;;;;;;;3.53;1.27;;;19.00;75.30;;;;;;4989588;28;20034;-68
2023/09/21 07:53:33;;;;;;;3.10;1.30;;;19.00;75.00;;;;;;4975153;28;20100;-68
2023/09/21 07:56:01;;;;;;;3.78;1.60;;;19.20;75.70;;;;;;4978768;28;20547;-68
2023/09/21 07:58:27;;;;;;;2.92;1.33;;;19.30;74.80;;;;;;4994605;28;20037;-68
2023/09/21 08:00:55;;;;;;;3.53;1.30;;;19.50;73.60;;;;;;4993525;28;20026;-68
2023/09/21 08:03:25;;;;;;;2.80;1.40;;;19.50;72.80;;;;;;4988012;28;21457;-68
2023/09/21 08:05:51;;;;;;;1.65;1.10;;;19.70;73.40;;;;;;4976261;28;20256;-68
2023/09/21 08:08:16;;;;;;;3.67;1.33;;;19.80;73.60;;;;;;4989704;28;20519;-66
2023/09/21 08:10:42;;;;;;;2.70;1.20;;;20.00;72.70;;;;;;4988212;28;20097;-65
2023/09/21 08:13:08;;;;;;;3.35;1.30;;;20.10;72.60;;;;;;4994413;28;20475;-66
2023/09/21 08:15:33;;;;;;;4.72;1.25;;;20.20;73.30;;;;;;4993582;28;20132;-66
2023/09/21 08:18:00;;;;;;;4.30;1.38;;;20.50;72.10;;;;;;4985957;28;20081;-66
2023/09/21 08:20:26;;;;;;;1.90;1.17;;;20.60;70.50;;;;;;4994601;28;20026;-65
2023/09/21 08:22:52;;;;;;;2.67;1.05;;;20.70;70.30;;;;;;4976887;28;20459;-67
2023/09/21 08:25:17;;;;;;;3.05;1.35;;;21.00;70.70;;;;;;4995408;28;20059;-66
2023/09/21 08:27:43;;;;;;;5.65;1.33;;;21.00;68.30;;;;;;4992548;28;20030;-65
2023/09/21 08:30:09;;;;;;;3.65;1.20;;;21.10;68.90;;;;;;4991606;28;20030;-66
2023/09/21 08:32:34;;;;;;;3.58;0.98;;;21.30;69.40;;;;;;4972840;28;20046;-65
2023/09/21 08:35:00;;;;;;;2.22;1.10;;;21.40;68.60;;;;;;4993718;28;20149;-68
2023/09/21 08:37:25;;;;;;;3.97;1.52;;;21.60;67.00;;;;;;4992073;28;20124;-69
2023/09/21 08:39:51;;;;;;;4.18;1.13;;;21.80;69.80;;;;;;5000704;28;20046;-68
2023/09/21 08:42:17;;;;;;;2.67;0.90;;;21.60;68.30;;;;;;4977878;28;20044;-68
2023/09/21 08:44:43;;;;;;;2.22;1.10;;;21.60;68.40;;;;;;4986743;28;20033;-68
2023/09/21 08:47:16;;;;;;;2.70;1.02;;;21.80;67.80;;;;;;4991453;28;20049;-66
2023/09/21 08:49:45;;;;;;;5.28;1.40;;;21.60;67.90;;;;;;4991046;28;20460;-65
2023/09/21 08:52:13;;;;;;;3.33;1.23;;;21.60;68.80;;;;;;4992569;28;20040;-66
2023/09/21 08:54:42;;;;;;;2.90;1.20;;;21.50;69.90;;;;;;4986670;28;20077;-66
2023/09/21 08:57:13;;;;;;;2.28;1.05;;;21.40;70.00;;;;;;4993568;28;20026;-65
2023/09/21 08:59:41;;;;;;;3.50;1.20;;;21.10;69.60;;;;;;4989748;28;20093;-66
2023/09/21 09:02:12;;;;;;;2.65;1.27;;;21.50;69.70;;;;;;4991236;28;20033;-69
2023/09/21 09:04:42;;;;;;;2.63;1.30;;;22.00;70.40;;;;;;4987363;28;20449;-66
2023/09/21 09:07:10;;;;;;;3.00;1.23;;;22.20;69.00;;;;;;4974402;28;20042;-65
2023/09/21 09:09:39;;;;;;;2.30;1.10;;;22.50;68.10;;;;;;4985179;28;20093;-66
2023/09/21 09:12:23;;;;;;;2.30;1.08;;;22.50;68.00;;;;;;4991388;28;20038;-65
2023/09/21 09:14:52;;;;;;;3.50;1.10;;;22.50;67.70;;;;;;4991777;28;20037;-66
2023/09/21 09:17:18;;;;;;;3.88;1.55;;;23.00;66.80;;;;;;4985775;28;20026;-68
2023/09/21 09:19:46;;;;;;;1.83;1.08;;;23.30;65.50;;;;;;4990056;28;20031;-65
2023/09/21 09:22:14;;;;;;;3.33;1.13;;;23.50;64.40;;;;;;4992030;28;20089;-65
2023/09/21 09:24:40;;;;;;;3.80;1.20;;;23.80;62.60;;;;;;4991501;28;20046;-66
2023/09/21 09:27:05;;;;;;;3.45;1.17;;;24.10;64.00;;;;;;4971959;28;20121;-65
2023/09/21 09:29:31;;;;;;;1.52;0.90;;;24.20;62.80;;;;;;4983467;28;20042;-66
2023/09/21 09:31:56;;;;;;;2.13;1.00;;;24.10;62.90;;;;;;4989310;28;20038;-65
2023/09/21 09:34:22;;;;;;;3.08;1.27;;;23.80;61.80;;;;;;4990590;28;20034;-66
2023/09/21 09:36:51;;;;;;;4.93;1.10;;;23.90;62.60;;;;;;4991830;28;20026;-66
2023/09/21 09:39:23;;;;;;;1.90;1.17;;;24.00;62.50;;;;;;4999254;28;20770;-66
2023/09/21 09:41:50;;;;;;;2.83;1.30;;;24.30;62.70;;;;;;4990894;28;20037;-66
2023/09/21 09:44:21;;;;;;;1.90;1.10;;;24.50;62.00;;;;;;4990928;28;20034;-68
2023/09/21 09:46:48;;;;;;;2.05;1.00;;;24.50;60.70;;;;;;4992229;28;20045;-66
2023/09/21 09:49:15;;;;;;;3.60;1.05;;;24.50;62.00;;;;;;4986149;28;20470;-65
2023/09/21 09:51:44;;;;;;;3.58;1.27;;;24.60;61.20;;;;;;4986854;28;20035;-66
2023/09/21 09:54:11;;;;;;;3.05;1.15;;;24.60;61.30;;;;;;4986498;28;20026;-69
2023/09/21 09:56:41;;;;;;;2.88;1.30;;;24.50;59.80;;;;;;4992805;28;20042;-65
2023/09/21 09:59:08;;;;;;;1.70;0.98;;;24.70;60.20;;;;;;4986812;28;20026;-65
2023/09/21 10:01:36;;;;;;;1.40;0.90;;;25.00;59.50;;;;;;4991032;28;20383;-65
2023/09/21 10:04:07;;;;;;;1.85;1.00;;;25.10;61.20;;;;;;4988829;28;20022;-66
2023/09/21 10:06:35;;;;;;;1.90;0.95;;;25.20;58.40;;;;;;4992929;28;20438;-65
2023/09/21 10:09:02;;;;;;;4.75;1.00;;;25.20;57.80;;;;;;4983692;28;20019;-66
2023/09/21 10:11:29;;;;;;;2.00;1.05;;;25.50;58.90;;;;;;4975443;28;20074;-65
2023/09/21 10:13:56;;;;;;;2.75;1.17;;;25.20;57.00;;;;;;4992608;28;20034;-66
2023/09/21 10:16:24;;;;;;;2.00;1.08;;;25.40;59.70;;;;;;4988479;28;20352;-68
2023/09/21 10:18:57;;;;;;;3.53;1.33;;;25.50;59.20;;;;;;4986421;28;20113;-65
2023/09/21 10:21:38;;;;;;;3.85;1.10;;;25.70;57.90;;;;;;4992431;28;20030;-65
2023/09/21 10:24:12;;;;;;;;;;;26.00;59.50;;;;;;4968603;28;20090;-66
2023/09/21 10:26:44;;;;;;;3.33;1.00;;;26.10;57.20;;;;;;4992123;28;20044;-66
2023/09/21 10:29:12;;;;;;;2.28;0.80;;;26.00;56.70;;;;;;4991840;28;20073;-65
2023/09/21 10:31:45;;;;;;;2.92;1.23;;;26.00;56.20;;;;;;4988678;28;20062;-67
2023/09/21 10:34:13;;;;;;;1.98;1.10;;;26.00;56.30;;;;;;4992611;28;20033;-66
2023/09/21 10:36:43;;;;;;;3.45;1.20;;;25.50;56.40;;;;;;4991334;28;20133;-66
2023/09/21 10:39:10;;;;;;;;;;;25.40;57.30;;;;;;4989438;28;20034;-65
2023/09/21 10:41:39;;;;;;;3.55;1.05;;;25.50;58.60;;;;;;4989563;28;19914;-65
2023/09/21 10:44:06;;;;;;;2.23;1.17;;;25.30;56.90;;;;;;4984467;28;20145;-65
2023/09/21 10:46:34;;;;;;;2.17;1.00;;;25.00;58.20;;;;;;4990667;28;20311;-65
2023/09/21 10:49:12;;;;;;;2.15;1.02;;;24.50;59.20;;;;;;4986316;28;20022;-66
2023/09/21 10:51:40;;;;;;;2.05;1.10;;;24.50;60.20;;;;;;4987784;28;20459;-66
2023/09/21 10:54:06;;;;;;;2.28;1.08;;;24.50;59.20;;;;;;4973117;28;20038;-66
2023/09/21 10:56:33;;;;;;;1.92;1.00;;;24.90;60.50;;;;;;4991418;28;20573;-66
2023/09/21 10:58:59;;;;;;;1.67;1.05;;;24.90;58.80;;;;;;4988394;28;20380;-66
2023/09/21 11:01:24;;;;;;;3.95;1.20;;;25.10;59.40;;;;;;4968970;28;20043;-67
2023/09/21 11:03:50;;;;;;;3.55;1.05;;;25.10;59.30;;;;;;4986972;28;20380;-65
2023/09/21 11:06:17;;;;;;;9.98;1.58;;;24.80;59.30;;;;;;4988787;28;20157;-65
2023/09/21 11:08:49;;;;;;;2.83;1.20;;;25.10;59.30;;;;;;4984612;28;20037;-67
2023/09/21 11:11:16;;;;;;;2.92;1.17;;;25.70;57.40;;;;;;4982630;28;20044;-66
2023/09/21 11:13:42;;;;;;;2.13;1.08;;;26.00;59.40;;;;;;4984269;28;20030;-67
2023/09/21 11:16:09;;;;;;;1.58;1.10;;;26.20;56.20;;;;;;4983800;28;20141;-66
2023/09/21 11:18:35;;;;;;;5.13;1.42;;;26.40;56.00;;;;;;4982615;28;20040;-66
2023/09/21 11:21:03;;;;;;;1.65;0.73;;;26.50;55.50;;;;;;4984078;28;20121;-65
2023/09/21 11:23:31;;;;;;;2.58;1.00;;;26.60;56.10;;;;;;4986545;28;20030;-66
2023/09/21 11:25:59;;;;;;;6.22;1.20;;;26.30;57.60;;;;;;4985150;28;20517;-66
2023/09/21 11:28:24;;;;;;;2.92;1.05;;;26.00;56.90;;;;;;4984212;28;20058;-66
2023/09/21 11:30:51;;;;;;;1.70;1.00;;;25.80;56.60;;;;;;4984206;28;20022;-66
2023/09/21 11:33:19;;;;;;;2.38;1.08;;;26.20;57.00;;;;;;4980611;28;20049;-65
2023/09/21 11:35:45;;;;;;;2.45;1.02;;;26.40;55.70;;;;;;4982763;28;20034;-66
2023/09/21 11:38:11;;;;;;;3.28;1.40;;;26.50;56.20;;;;;;4984671;28;20033;-66
2023/09/21 11:40:37;;;;;;;2.58;0.93;;;26.50;55.30;;;;;;4989562;28;20035;-67
2023/09/21 11:43:04;;;;;;;2.35;1.00;;;26.90;55.50;;;;;;4986891;28;20034;-66
2023/09/21 11:45:34;;;;;;;2.83;1.00;;;27.40;53.00;;;;;;4987831;28;20038;-66
2023/09/21 11:47:59;;;;;;;3.10;1.08;;;27.70;53.10;;;;;;4975758;28;20044;-66
2023/09/21 11:50:33;;;;;;;2.03;0.80;;;27.80;51.10;;;;;;4987834;28;20395;-67
2023/09/21 11:52:58;;;;;;;4.40;1.00;;;27.70;53.50;;;;;;4984864;28;20057;-67
2023/09/21 11:55:27;;;;;;;1.65;1.02;;;27.90;52.60;;;;;;4983474;28;20038;-67
2023/09/21 11:57:54;;;;;;;3.25;1.00;;;27.90;50.70;;;;;;4994667;28;20026;-66
2023/09/21 12:00:43;;;;;;;1.63;0.80;;;27.80;52.30;;;;;;4988149;28;20031;-67
2023/09/21 12:03:16;;;;;;;1.30;0.75;;;27.60;53.50;;;;;;4963695;28;20046;-66
2023/09/21 12:05:42;;;;;;;3.88;0.95;;;27.60;52.70;;;;;;4988199;28;20133;-68
2023/09/21 12:08:10;;;;;;;2.28;0.90;;;28.50;53.20;;;;;;4983808;28;20444;-66
2023/09/21 12:10:36;;;;;;;1.20;0.60;;;28.90;51.00;;;;;;4990515;28;20022;-66
2023/09/21 12:13:03;;;;;;;2.17;1.00;;;28.50;51.40;;;;;;4991298;28;20062;-67
2023/09/21 12:15:29;;;;;;;2.72;0.93;;;28.30;52.40;;;;;;4985273;28;20023;-65
2023/09/21 12:17:54;;;;;;;2.95;0.90;;;27.80;52.10;;;;;;4971876;28;20113;-66
2023/09/21 12:20:21;;;;;;;2.05;0.75;;;27.70;52.20;;;;;;4990834;28;20062;-67
2023/09/21 12:22:46;;;;;;;2.88;0.80;;;28.10;53.10;;;;;;4984584;28;20026;-68
2023/09/21 12:25:14;;;;;;;9.30;2.72;;;27.80;52.90;;;;;;4990740;28;20059;-67
2023/09/21 12:27:40;;;;;;;2.17;0.93;;;28.00;53.10;;;;;;4994079;28;20458;-66
2023/09/21 12:30:12;;;;;;;2.63;1.00;;;28.00;52.90;;;;;;4990405;28;20122;-66
2023/09/21 12:32:41;;;;;;;1.77;0.80;;;27.40;53.60;;;;;;4993932;28;20105;-67
2023/09/21 12:35:08;;;;;;;2.25;0.93;;;27.00;54.90;;;;;;4989973;28;20115;-67
2023/09/21 12:37:35;;;;;;;1.33;0.80;;;27.00;54.40;;;;;;4992219;28;20475;-67
2023/09/21 12:40:04;;;;;;;1.83;0.80;;;27.50;55.60;;;;;;4996059;28;20069;-66
2023/09/21 12:42:29;;;;;;;3.85;1.05;;;27.40;54.90;;;;;;4991954;28;20113;-66
2023/09/21 12:44:55;;;;;;;2.00;0.85;;;27.50;56.20;;;;;;4993591;28;20117;-67
2023/09/21 12:47:20;;;;;;;1.70;0.90;;;27.70;56.60;;;;;;4991578;28;20041;-67